createdAt,value
2019-01-09T00:01:39.876Z,183.83
2019-01-09T00:04:10.990Z,224.27
2019-01-09T00:06:41.920Z,233.83
2019-01-09T00:09:13.176Z,219.53
2019-01-09T00:11:44.226Z,139.63
2019-01-09T00:14:15.451Z,150.47
2019-01-09T00:16:46.635Z,222.30
2019-01-09T00:19:17.848Z,199.03
2019-01-09T00:21:48.981Z,172.30
2019-01-09T00:24:20.308Z,256.30
2019-01-09T00:26:53.433Z,196.63
2019-01-09T00:29:24.404Z,245.57
2019-01-09T00:31:55.355Z,145.93
2019-01-09T00:34:26.682Z,184.07
2019-01-09T00:36:57.773Z,206.53
2019-01-09T00:39:28.795Z,128.03
2019-01-09T00:41:59.914Z,153.13
2019-01-09T00:44:31.124Z,199.73
2019-01-09T00:47:02.236Z,185.70
2019-01-09T00:49:33.350Z,162.00
2019-01-09T00:52:04.545Z,124.00
2019-01-09T00:54:35.682Z,120.60
2019-01-09T00:57:08.137Z,117.87
2019-01-09T00:59:39.190Z,128.77
2019-01-09T01:02:50.944Z,113.03
2019-01-09T01:05:50.466Z,112.53
2019-01-09T01:09:21.843Z,108.23
2019-01-09T01:12:31.508Z,102.13
2019-01-09T01:15:46.535Z,91.03
2019-01-09T01:19:13.211Z,88.17
2019-01-09T01:21:52.435Z,106.57
2019-01-09T01:24:58.806Z,104.23
2019-01-09T01:28:04.755Z,107.97
2019-01-09T01:30:59.484Z,98.00
2019-01-09T01:33:56.362Z,87.00
2019-01-09T01:36:59.656Z,59.77
2019-01-09T01:40:10.445Z,83.40
2019-01-09T01:43:18.279Z,93.40
2019-01-09T01:46:13.046Z,81.13
2019-01-09T01:49:29.852Z,93.03
2019-01-09T01:53:09.059Z,85.10
2019-01-09T01:56:03.141Z,76.27
2019-01-09T01:59:23.049Z,73.80
2019-01-09T02:02:41.477Z,77.37
2019-01-09T02:06:03.714Z,79.73
2019-01-09T02:08:54.877Z,72.30
2019-01-09T02:12:06.761Z,64.77
2019-01-09T02:15:05.421Z,68.47
2019-01-09T02:18:06.900Z,74.43
2019-01-09T02:21:14.165Z,77.17
2019-01-09T02:24:41.302Z,79.40
2019-01-09T02:27:35.542Z,70.93
2019-01-09T02:30:42.177Z,65.90
2019-01-09T02:33:13.155Z,69.50
2019-01-09T02:35:44.171Z,74.77
2019-01-09T02:38:15.252Z,71.67
2019-01-09T02:40:46.298Z,55.30
2019-01-09T02:43:17.276Z,63.50
2019-01-09T02:45:48.171Z,57.90
2019-01-09T02:48:19.258Z,61.63
2019-01-09T02:50:50.199Z,66.20
2019-01-09T02:53:21.208Z,63.97
2019-01-09T02:55:52.240Z,69.13
2019-01-09T02:58:23.435Z,61.10
2019-01-09T03:00:54.546Z,78.00
2019-01-09T03:03:25.744Z,69.93
2019-01-09T03:05:56.615Z,73.23
2019-01-09T03:08:27.616Z,80.27
2019-01-09T03:10:58.578Z,76.87
2019-01-09T03:13:29.679Z,79.77
2019-01-09T03:16:00.580Z,86.13
2019-01-09T03:18:31.684Z,80.13
2019-01-09T03:21:02.695Z,73.37
2019-01-09T03:23:33.883Z,77.97
2019-01-09T03:26:06.058Z,77.00
2019-01-09T03:28:37.134Z,73.53
2019-01-09T03:31:08.205Z,75.73
2019-01-09T03:33:39.177Z,67.13
2019-01-09T03:36:10.135Z,81.07
2019-01-09T03:38:41.129Z,70.87
2019-01-09T03:41:12.143Z,72.73
2019-01-09T03:43:43.232Z,72.90
2019-01-09T03:46:17.171Z,88.27
2019-01-09T03:48:48.131Z,87.97
2019-01-09T03:51:19.046Z,85.00
2019-01-09T03:53:50.047Z,78.40
2019-01-09T03:56:21.174Z,79.67
2019-01-09T03:58:52.145Z,78.60
2019-01-09T04:01:23.074Z,81.20
2019-01-09T04:03:54.027Z,83.07
2019-01-09T04:06:28.077Z,77.73
2019-01-09T04:08:59.324Z,79.70
2019-01-09T04:11:50.986Z,79.80
2019-01-09T04:17:11.441Z,80.43
2019-01-09T04:19:42.456Z,81.67
2019-01-09T04:22:13.533Z,86.77
2019-01-09T04:24:44.653Z,86.87
2019-01-09T04:27:15.527Z,88.77
2019-01-09T04:29:46.464Z,88.20
2019-01-09T04:32:17.387Z,88.87
2019-01-09T04:34:48.410Z,96.13
2019-01-09T04:37:19.488Z,82.50
2019-01-09T04:39:50.510Z,86.77
2019-01-09T04:42:21.677Z,79.33
2019-01-09T04:44:52.692Z,88.93
2019-01-09T04:47:23.755Z,90.90
2019-01-09T04:49:54.802Z,93.13
2019-01-09T04:52:25.841Z,103.93
2019-01-09T04:54:57.022Z,90.23
2019-01-09T04:57:28.123Z,90.40
2019-01-09T04:59:59.942Z,103.87
2019-01-09T05:02:31.031Z,99.40
2019-01-09T05:05:02.551Z,92.57
2019-01-09T05:07:33.887Z,105.27
2019-01-09T05:10:05.305Z,106.63
2019-01-09T05:12:36.950Z,99.80
2019-01-09T05:15:08.602Z,106.07
2019-01-09T05:17:39.715Z,112.90
2019-01-09T05:20:10.802Z,112.13
2019-01-09T05:22:41.807Z,83.33
2019-01-09T05:25:12.975Z,102.40
2019-01-09T05:27:44.236Z,108.63
2019-01-09T05:30:15.828Z,113.50
2019-01-09T05:32:46.946Z,78.27
2019-01-09T05:35:17.979Z,110.03
2019-01-09T05:37:48.881Z,128.37
2019-01-09T05:40:20.566Z,125.00
2019-01-09T05:42:51.637Z,127.40
2019-01-09T05:45:23.187Z,99.87
2019-01-09T05:47:54.546Z,107.40
2019-01-09T05:50:25.733Z,113.90
2019-01-09T05:52:57.008Z,109.97
2019-01-09T05:55:28.113Z,93.60
2019-01-09T05:57:59.797Z,101.30
2019-01-09T06:00:32.252Z,109.73
2019-01-09T06:03:03.369Z,119.77
2019-01-09T06:05:35.038Z,94.70
2019-01-09T06:08:07.199Z,97.67
2019-01-09T06:10:38.870Z,109.43
2019-01-09T06:13:11.188Z,96.13
2019-01-09T06:15:42.920Z,111.53
2019-01-09T06:18:14.001Z,114.73
2019-01-09T06:20:45.100Z,107.43
2019-01-09T06:23:16.676Z,111.60
2019-01-09T06:25:48.338Z,107.63
2019-01-09T06:28:19.387Z,105.07
2019-01-09T06:30:51.130Z,116.77
2019-01-09T06:33:22.846Z,97.73
2019-01-09T06:35:54.654Z,102.43
2019-01-09T06:38:26.303Z,109.77
2019-01-09T06:40:59.204Z,122.47
2019-01-09T06:43:31.603Z,115.40
2019-01-09T06:46:02.727Z,107.43
2019-01-09T06:48:34.379Z,112.07
2019-01-09T06:51:06.145Z,109.83
2019-01-09T06:53:37.721Z,98.63
2019-01-09T06:56:09.475Z,100.70
2019-01-09T06:58:42.346Z,95.23
2019-01-09T07:01:14.007Z,86.20
2019-01-09T07:03:45.611Z,82.63
2019-01-09T07:06:16.791Z,105.47
2019-01-09T07:08:48.215Z,115.13
2019-01-09T07:11:19.907Z,97.63
2019-01-09T07:13:51.719Z,98.93
2019-01-09T07:16:23.542Z,105.27
2019-01-09T07:18:55.334Z,105.17
2019-01-09T07:21:26.544Z,95.20
2019-01-09T07:23:58.296Z,100.90
2019-01-09T07:26:30.177Z,107.80
2019-01-09T07:29:01.856Z,101.77
2019-01-09T07:31:33.770Z,103.40
2019-01-09T07:34:05.442Z,115.27
2019-01-09T07:36:36.716Z,110.50
2019-01-09T07:39:09.279Z,118.97
2019-01-09T07:41:40.992Z,114.83
2019-01-09T07:44:12.868Z,103.27
2019-01-09T07:46:46.004Z,113.47
2019-01-09T07:49:17.201Z,109.00
2019-01-09T07:51:48.737Z,93.97
2019-01-09T07:54:19.993Z,86.80
2019-01-09T07:56:51.040Z,92.90
2019-01-09T07:59:22.694Z,103.67
2019-01-09T08:01:54.593Z,54.43
2019-01-09T08:04:26.226Z,69.57
2019-01-09T08:06:57.922Z,95.90
2019-01-09T08:09:29.661Z,106.43
2019-01-09T08:12:01.419Z,99.97
2019-01-09T08:14:33.208Z,83.10
2019-01-09T08:17:04.926Z,104.30
2019-01-09T08:19:36.591Z,124.23
2019-01-09T08:22:08.173Z,123.73
2019-01-09T08:24:39.827Z,119.87
2019-01-09T08:27:11.193Z,95.67
2019-01-09T08:29:42.834Z,75.00
2019-01-09T08:32:14.598Z,106.27
2019-01-09T08:34:46.236Z,110.37
2019-01-09T08:37:18.071Z,117.60
2019-01-09T08:39:49.753Z,104.87
2019-01-09T08:42:21.641Z,99.50
2019-01-09T08:44:53.343Z,112.73
2019-01-09T08:47:24.968Z,92.93
2019-01-09T08:49:56.675Z,111.23
2019-01-09T08:52:28.562Z,125.87
2019-01-09T08:55:00.386Z,106.53
2019-01-09T08:57:32.290Z,115.77
2019-01-09T09:00:05.753Z,43.87
2019-01-09T09:02:37.396Z,68.73
2019-01-09T09:05:09.292Z,93.93
2019-01-09T09:07:42.147Z,85.70
2019-01-09T09:10:14.750Z,112.10
2019-01-09T09:12:46.938Z,89.63
2019-01-09T09:15:18.621Z,68.30
2019-01-09T09:17:50.426Z,103.67
2019-01-09T09:20:22.304Z,105.63
2019-01-09T09:22:54.057Z,104.10
2019-01-09T09:25:25.697Z,124.07
2019-01-09T09:27:57.343Z,110.67
2019-01-09T09:30:29.018Z,53.63
2019-01-09T09:33:00.768Z,102.60
2019-01-09T09:35:32.774Z,121.70
2019-01-09T09:38:04.079Z,110.50
2019-01-09T09:40:35.609Z,74.70
2019-01-09T09:43:07.341Z,95.27
2019-01-09T09:45:38.698Z,105.23
2019-01-09T09:48:11.634Z,97.40
2019-01-09T09:50:44.250Z,85.00
2019-01-09T09:53:15.867Z,94.07
2019-01-09T09:55:47.011Z,93.37
2019-01-09T09:58:18.849Z,51.33
2019-01-09T10:00:50.630Z,80.27
2019-01-09T10:03:22.386Z,106.93
2019-01-09T10:05:54.081Z,101.17
2019-01-09T10:08:29.540Z,113.23
2019-01-09T10:10:59.119Z,108.53
2019-01-09T10:13:31.063Z,95.13
2019-01-09T10:16:02.740Z,109.47
2019-01-09T10:18:34.516Z,115.30
2019-01-09T10:21:06.547Z,104.30
2019-01-09T10:23:38.431Z,114.50
2019-01-09T10:26:10.171Z,94.20
2019-01-09T10:28:41.985Z,105.40
2019-01-09T10:31:13.691Z,113.83
2019-01-09T10:33:45.414Z,98.10
2019-01-09T10:36:17.192Z,104.20
2019-01-09T10:38:49.258Z,128.03
2019-01-09T10:41:20.763Z,120.30
2019-01-09T10:43:52.673Z,122.90
2019-01-09T10:46:24.337Z,147.37
2019-01-09T10:48:56.224Z,115.70
2019-01-09T10:51:28.190Z,115.73
2019-01-09T10:54:00.744Z,110.47
2019-01-09T10:56:32.679Z,107.00
2019-01-09T10:59:04.860Z,104.77
2019-01-09T11:01:36.408Z,103.53
2019-01-09T11:04:07.664Z,106.93
2019-01-09T11:06:38.779Z,89.80
2019-01-09T11:09:10.788Z,116.27
2019-01-09T11:11:42.488Z,98.00
2019-01-09T11:14:14.218Z,96.93
2019-01-09T11:16:45.903Z,96.97
2019-01-09T11:19:17.626Z,97.83
2019-01-09T11:21:49.854Z,114.60
2019-01-09T11:24:21.654Z,63.17
2019-01-09T11:26:53.277Z,104.43
2019-01-09T11:29:24.805Z,121.00
2019-01-09T11:31:56.849Z,332.70
2019-01-09T11:34:28.580Z,253.50
2019-01-09T11:36:59.675Z,197.70
2019-01-09T11:39:31.470Z,295.17
2019-01-09T11:42:03.608Z,321.27
2019-01-09T11:44:35.365Z,161.77
2019-01-09T11:47:07.329Z,139.20
2019-01-09T11:49:39.767Z,135.53
2019-01-09T11:52:12.161Z,125.07
2019-01-09T11:54:43.919Z,127.80
2019-01-09T11:57:15.620Z,145.13
2019-01-09T11:59:47.392Z,166.90
2019-01-09T12:02:22.127Z,89.23
2019-01-09T12:04:53.079Z,88.30
2019-01-09T12:07:24.631Z,387.60
2019-01-09T12:09:56.365Z,89.63
2019-01-09T12:12:28.218Z,168.43
2019-01-09T12:15:00.032Z,121.23
2019-01-09T12:17:31.795Z,108.27
2019-01-09T12:20:03.527Z,111.83
2019-01-09T12:22:35.269Z,67.10
2019-01-09T12:25:07.931Z,72.27
2019-01-09T12:27:40.126Z,91.53
2019-01-09T12:30:16.694Z,79.80
2019-01-09T12:32:48.549Z,67.97
2019-01-09T12:35:21.890Z,87.90
2019-01-09T12:37:53.608Z,107.50
2019-01-09T12:40:25.431Z,74.03
2019-01-09T12:42:57.080Z,94.70
2019-01-09T12:45:29.273Z,86.70
2019-01-09T12:48:00.921Z,87.23
2019-01-09T12:50:32.484Z,60.57
2019-01-09T12:53:04.207Z,59.83
2019-01-09T12:55:35.394Z,65.13
2019-01-09T12:58:07.102Z,84.27
2019-01-09T13:00:38.757Z,79.67
2019-01-09T13:03:10.508Z,99.53
2019-01-09T13:05:42.723Z,98.80
2019-01-09T13:08:14.457Z,89.47
2019-01-09T13:10:46.109Z,97.63
2019-01-09T13:13:17.807Z,99.63
2019-01-09T13:15:49.814Z,89.30
2019-01-09T13:18:21.898Z,95.63
2019-01-09T13:20:53.651Z,106.20
2019-01-09T13:23:25.436Z,94.33
2019-01-09T13:25:57.326Z,69.53
2019-01-09T13:28:28.967Z,79.93
2019-01-09T13:31:00.929Z,80.03
2019-01-09T13:33:32.649Z,97.90
2019-01-09T13:36:04.386Z,95.97
2019-01-09T13:38:36.301Z,92.63
2019-01-09T13:41:08.293Z,97.00
2019-01-09T13:43:39.542Z,54.87
2019-01-09T13:46:11.136Z,58.73
2019-01-09T13:48:42.813Z,87.47
2019-01-09T13:51:14.525Z,54.93
2019-01-09T13:53:46.313Z,98.73
2019-01-09T13:56:17.909Z,105.70
2019-01-09T13:58:49.158Z,93.67
2019-01-09T14:01:22.158Z,107.93
2019-01-09T14:03:53.861Z,87.03
2019-01-09T14:06:25.406Z,116.90
2019-01-09T14:08:56.499Z,98.70
2019-01-09T14:11:27.625Z,104.57
2019-01-09T14:13:58.713Z,119.77
2019-01-09T14:16:30.506Z,118.60
2019-01-09T14:19:02.196Z,112.67
2019-01-09T14:21:33.796Z,112.80
2019-01-09T14:24:06.047Z,103.00
2019-01-09T14:26:37.740Z,84.80
2019-01-09T14:29:09.496Z,111.33
2019-01-09T14:31:41.378Z,94.43
2019-01-09T14:34:13.071Z,136.60
2019-01-09T14:36:44.775Z,113.90
2019-01-09T14:39:15.824Z,93.23
2019-01-09T14:41:47.129Z,125.60
2019-01-09T14:44:18.228Z,88.73
2019-01-09T14:46:49.988Z,105.97
2019-01-09T14:49:20.984Z,68.67
2019-01-09T14:51:51.988Z,104.33
2019-01-09T14:54:22.998Z,110.97
2019-01-09T14:56:54.732Z,124.17
2019-01-09T14:59:26.336Z,116.80
2019-01-09T15:01:58.127Z,124.27
2019-01-09T15:04:29.798Z,124.93
2019-01-09T15:07:01.542Z,114.93
2019-01-09T15:09:32.655Z,130.33
2019-01-09T15:12:05.633Z,59.17
2019-01-09T15:14:37.295Z,68.37
2019-01-09T15:17:09.039Z,47.33
2019-01-09T15:19:40.808Z,74.93
2019-01-09T15:22:12.461Z,79.77
2019-01-09T15:24:44.163Z,63.43
2019-01-09T15:27:16.007Z,65.30
2019-01-09T15:29:47.158Z,73.10
2019-01-09T15:32:18.297Z,65.87
2019-01-09T15:34:49.978Z,70.50
2019-01-09T15:37:20.757Z,56.47
2019-01-09T15:39:51.530Z,72.80
2019-01-09T15:42:22.525Z,55.33
2019-01-09T15:44:53.387Z,71.97
2019-01-09T15:47:24.211Z,87.27
2019-01-09T15:49:56.184Z,75.83
2019-01-09T15:52:27.225Z,95.50
2019-01-09T15:54:58.161Z,86.57
2019-01-09T15:57:28.989Z,98.60
2019-01-09T15:59:59.923Z,74.90
2019-01-09T16:02:30.964Z,85.63
2019-01-09T16:05:02.603Z,82.87
2019-01-09T16:07:33.654Z,80.07
2019-01-09T16:10:04.801Z,89.33
2019-01-09T16:12:36.478Z,104.37
2019-01-09T16:15:09.698Z,117.77
2019-01-09T16:17:41.421Z,81.07
2019-01-09T16:20:16.855Z,66.53
2019-01-09T16:22:47.417Z,78.80
2019-01-09T16:25:19.238Z,69.03
2019-01-09T16:27:51.315Z,59.50
2019-01-09T16:30:50.437Z,52.87
2019-01-09T16:33:23.151Z,54.03
2019-01-09T16:35:54.997Z,33.93
2019-01-09T16:38:26.648Z,30.80
2019-01-09T16:40:58.380Z,27.60
2019-01-09T16:43:30.211Z,34.50
2019-01-09T16:46:02.335Z,38.63
2019-01-09T16:48:34.123Z,36.10
2019-01-09T16:51:05.663Z,48.60
2019-01-09T16:53:37.877Z,45.67
2019-01-09T16:56:09.636Z,48.60
2019-01-09T16:58:41.381Z,34.67
2019-01-09T17:01:13.228Z,29.60
2019-01-09T17:03:45.576Z,34.47
2019-01-09T17:06:17.506Z,27.97
2019-01-09T17:08:49.221Z,26.53
2019-01-09T17:11:21.025Z,32.97
2019-01-09T17:13:52.715Z,29.47
2019-01-09T17:16:24.248Z,25.13
2019-01-09T17:18:56.155Z,27.47
2019-01-09T17:21:27.565Z,26.97
2019-01-09T17:23:58.622Z,23.60
2019-01-09T17:26:29.619Z,27.07
2019-01-09T17:29:00.672Z,26.37
2019-01-09T17:31:32.337Z,28.50
2019-01-09T17:34:03.701Z,36.23
2019-01-09T17:36:35.345Z,40.10
2019-01-09T17:39:09.659Z,25.60
2019-01-09T17:41:41.460Z,32.63
2019-01-09T17:44:13.306Z,32.37
2019-01-09T17:46:45.475Z,27.30
2019-01-09T17:49:17.296Z,39.80
2019-01-09T17:51:49.435Z,32.97
2019-01-09T17:54:21.259Z,35.90
2019-01-09T17:56:52.966Z,30.57
2019-01-09T17:59:32.772Z,41.43
2019-01-09T18:02:04.634Z,34.57
2019-01-09T18:04:36.371Z,38.53
2019-01-09T18:07:08.020Z,43.23
2019-01-09T18:09:39.779Z,45.10
2019-01-09T18:12:11.839Z,58.13
2019-01-09T18:14:43.543Z,47.43
2019-01-09T18:17:14.819Z,29.97
2019-01-09T18:19:46.380Z,50.07
2019-01-09T18:22:19.003Z,32.80
2019-01-09T18:24:50.539Z,38.73
2019-01-09T18:27:22.039Z,32.87
2019-01-09T18:29:56.020Z,21.80
2019-01-09T18:32:47.636Z,38.33
2019-01-09T18:35:57.921Z,49.87
2019-01-09T18:38:47.022Z,46.60
2019-01-09T18:41:53.459Z,33.00
2019-01-09T18:45:13.457Z,32.80
2019-01-09T18:48:16.240Z,40.90
2019-01-09T18:51:18.541Z,38.97
2019-01-09T18:53:52.468Z,45.03
2019-01-09T18:56:23.432Z,42.23
2019-01-09T18:58:54.215Z,59.13
2019-01-09T19:01:25.017Z,31.63
2019-01-09T19:03:55.823Z,37.33
2019-01-09T19:06:34.792Z,38.90
2019-01-09T19:08:59.147Z,36.57
2019-01-09T19:11:30.135Z,39.10
2019-01-09T19:14:00.991Z,40.93
2019-01-09T19:16:33.097Z,46.17
2019-01-09T19:19:04.184Z,48.03
2019-01-09T19:21:35.088Z,25.97
2019-01-09T19:24:06.358Z,50.00
2019-01-09T19:26:37.152Z,41.37
2019-01-09T19:29:08.409Z,62.90
2019-01-09T19:31:39.397Z,65.30
2019-01-09T19:34:10.785Z,32.50
2019-01-09T19:36:41.879Z,22.43
2019-01-09T19:39:12.698Z,40.70
2019-01-09T19:41:43.591Z,36.10
2019-01-09T19:44:14.831Z,29.60
2019-01-09T19:46:46.859Z,21.00
2019-01-09T19:49:17.960Z,28.90
2019-01-09T19:51:48.904Z,36.53
2019-01-09T19:54:19.978Z,33.00
2019-01-09T19:56:50.828Z,45.83
2019-01-09T19:59:22.467Z,43.50
2019-01-09T20:01:53.523Z,36.20
2019-01-09T20:04:24.431Z,43.27
2019-01-09T20:06:56.430Z,37.90
2019-01-09T20:09:27.453Z,36.27
2019-01-09T20:11:58.445Z,49.37
2019-01-09T20:14:29.393Z,33.43
2019-01-09T20:17:00.405Z,43.03
2019-01-09T20:19:32.552Z,39.43
2019-01-09T20:22:05.085Z,43.97
2019-01-09T20:24:36.140Z,47.00
2019-01-09T20:27:07.052Z,47.77
2019-01-09T20:29:38.173Z,43.73
2019-01-09T20:32:09.557Z,42.23
2019-01-09T20:34:40.546Z,41.67
2019-01-09T20:37:11.460Z,39.77
2019-01-09T20:39:42.338Z,31.73
2019-01-09T20:42:13.263Z,27.23
2019-01-09T20:44:44.308Z,31.17
2019-01-09T20:47:15.519Z,33.33
2019-01-09T20:49:46.410Z,19.70
2019-01-09T20:52:17.470Z,28.57
2019-01-09T20:54:48.413Z,23.50
2019-01-09T20:57:19.323Z,22.40
2019-01-09T20:59:50.238Z,39.70
2019-01-09T21:02:21.058Z,19.73
2019-01-09T21:04:51.967Z,33.17
2019-01-09T21:07:22.897Z,32.90
2019-01-09T21:09:53.992Z,23.10
2019-01-09T21:12:25.932Z,30.13
2019-01-09T21:14:57.765Z,35.03
2019-01-09T21:17:29.606Z,18.03
2019-01-09T21:20:01.032Z,28.57
2019-01-09T21:22:32.103Z,26.33
2019-01-09T21:25:03.129Z,19.47
2019-01-09T21:27:41.947Z,31.80
2019-01-09T21:30:08.597Z,17.27
2019-01-09T21:32:39.886Z,20.43
2019-01-09T21:35:12.065Z,24.47
2019-01-09T21:37:43.358Z,29.03
2019-01-09T21:40:25.791Z,21.50
2019-01-09T21:42:56.786Z,31.27
2019-01-09T21:45:28.051Z,26.20
2019-01-09T21:47:59.399Z,21.67
2019-01-09T21:50:31.363Z,30.13
2019-01-09T21:53:02.477Z,25.00
2019-01-09T21:55:34.595Z,26.50
2019-01-09T21:58:05.547Z,23.00
2019-01-09T22:00:36.525Z,23.13
2019-01-09T22:03:07.392Z,38.20
2019-01-09T22:05:38.612Z,33.17
2019-01-09T22:08:09.655Z,37.47
2019-01-09T22:10:40.497Z,37.90
2019-01-09T22:13:11.472Z,39.77
2019-01-09T22:15:42.477Z,34.50
2019-01-09T22:18:13.766Z,33.90
2019-01-09T22:20:44.967Z,30.43
2019-01-09T22:23:16.069Z,34.07
2019-01-09T22:25:47.227Z,22.43
2019-01-09T22:28:18.022Z,40.17
2019-01-09T22:30:49.024Z,40.77
2019-01-09T22:33:19.907Z,39.03
2019-01-09T22:35:50.878Z,32.23
2019-01-09T22:38:21.754Z,36.10
2019-01-09T22:40:52.706Z,39.83
2019-01-09T22:43:23.602Z,48.03
2019-01-09T22:45:54.844Z,25.40
2019-01-09T22:48:25.734Z,42.43
2019-01-09T22:50:56.639Z,45.70
2019-01-09T22:53:27.482Z,37.03
2019-01-09T22:55:58.538Z,38.43
2019-01-09T22:58:29.339Z,27.70
2019-01-09T23:01:11.401Z,26.50
2019-01-09T23:03:42.716Z,31.90
2019-01-09T23:06:13.819Z,28.13
2019-01-09T23:08:44.806Z,25.90
2019-01-09T23:11:15.618Z,34.83
2019-01-09T23:13:46.673Z,36.03
2019-01-09T23:16:17.705Z,24.33
2019-01-09T23:18:48.650Z,32.93
2019-01-09T23:21:19.695Z,24.20
2019-01-09T23:23:50.646Z,26.90
2019-01-09T23:26:21.703Z,26.67
2019-01-09T23:28:52.537Z,23.83
2019-01-09T23:31:23.520Z,29.40
2019-01-09T23:33:54.396Z,33.77
2019-01-09T23:36:27.407Z,36.40
2019-01-09T23:38:57.692Z,24.90
2019-01-09T23:41:28.705Z,29.67
2019-01-09T23:43:59.659Z,19.63
2019-01-09T23:46:30.555Z,26.47
2019-01-09T23:49:02.462Z,23.67
2019-01-09T23:51:33.350Z,22.80
2019-01-09T23:54:06.305Z,31.27
2019-01-09T23:56:37.266Z,37.70
2019-01-09T23:59:11.204Z,27.57
